Time;durP1;ratioP1;P1;durP2;ratioP2;P2;SDS_P1;SDS_P2;PMS_P1;PMS_P2;Temp;Humidity;BMP_temperature;BMP_pressure;BME280_temperature;BME280_humidity;BME280_pressure;Samples;Min_cycle;Max_cycle;Signal;HPM_P1;HPM_P2
2021/06/29 00:00:40;;;;;;;9.23;8.13;;;;;;;22.41;66.32;101202.00;5034014;28;20416;-58
2021/06/29 00:03:07;;;;;;;8.88;7.97;;;;;;;22.41;66.36;101206.47;5034280;28;20103;-59
2021/06/29 00:05:35;;;;;;;8.85;7.95;;;;;;;22.39;66.38;101206.59;5034679;28;20413;-57
2021/06/29 00:08:02;;;;;;;9.18;8.18;;;;;;;22.41;66.34;101209.97;5033730;28;20414;-59
2021/06/29 00:10:28;;;;;;;9.45;7.88;;;;;;;22.40;66.23;101205.63;5034551;28;20075;-58
2021/06/29 00:12:54;;;;;;;9.15;8.25;;;;;;;22.40;66.18;101202.97;5034672;28;20056;-58
2021/06/29 00:15:21;;;;;;;9.25;8.23;;;;;;;22.40;66.26;101202.97;5032663;28;20053;-59
2021/06/29 00:17:47;;;;;;;9.07;8.13;;;;;;;22.38;66.27;101198.78;5034151;28;20036;-58
2021/06/29 00:20:13;;;;;;;9.07;8.00;;;;;;;22.40;66.33;101196.84;5034005;28;20105;-58
2021/06/29 00:22:39;;;;;;;8.75;7.38;;;;;;;22.40;66.28;101196.84;5033763;28;20160;-59
2021/06/29 00:25:05;;;;;;;8.60;7.70;;;;;;;22.38;66.28;101188.16;5034217;28;20053;-58
2021/06/29 00:27:30;;;;;;;9.07;8.13;;;;;;;22.39;66.12;101184.53;5034140;28;20030;-58
2021/06/29 00:29:56;;;;;;;9.48;8.18;;;;;;;22.38;66.09;101182.84;5033271;28;20049;-59
2021/06/29 00:32:21;;;;;;;9.80;8.48;;;;;;;22.38;66.17;101186.34;5033935;28;20109;-59
2021/06/29 00:34:46;;;;;;;9.00;8.10;;;;;;;22.39;66.13;101179.22;5033846;28;20028;-57
2021/06/29 00:37:11;;;;;;;9.43;8.43;;;;;;;22.37;65.75;101175.88;5033751;28;20320;-59
2021/06/29 00:39:37;;;;;;;10.18;8.13;;;;;;;22.38;66.21;101166.91;5034152;28;20421;-59
2021/06/29 00:42:05;;;;;;;8.95;7.90;;;;;;;22.37;66.10;101157.28;5032936;28;20111;-58
2021/06/29 00:44:30;;;;;;;9.25;7.72;;;;;;;22.35;66.04;101157.44;5033746;28;20489;-58
2021/06/29 00:46:57;;;;;;;10.60;8.40;;;;;;;22.37;66.12;101158.13;5033761;28;20064;-58
2021/06/29 00:49:23;;;;;;;10.07;8.50;;;;;;;22.37;66.32;101159.94;5032776;28;20025;-59
2021/06/29 00:51:49;;;;;;;9.35;8.35;;;;;;;22.37;66.03;101162.59;5034038;28;20028;-59
2021/06/29 00:54:14;;;;;;;8.95;7.78;;;;;;;22.37;66.15;101165.25;5033665;28;20032;-58
2021/06/29 00:56:40;;;;;;;10.32;8.93;;;;;;;22.36;66.28;101172.38;5032962;28;20017;-58
2021/06/29 00:59:08;;;;;;;9.10;8.15;;;;;;;22.33;66.11;101172.66;5033493;28;20484;-58
2021/06/29 01:01:33;;;;;;;9.60;8.60;;;;;;;22.35;66.03;101165.41;5033664;28;20027;-60
2021/06/29 01:03:59;;;;;;;9.15;8.18;;;;;;;22.35;66.25;101167.19;5033118;28;20105;-58
2021/06/29 01:06:30;;;;;;;10.18;9.13;;;;;;;22.33;66.11;101164.69;5033439;28;20104;-58
2021/06/29 01:08:56;;;;;;;9.48;8.48;;;;;;;22.34;66.10;101170.84;5033526;28;20025;-57
2021/06/29 01:11:21;;;;;;;9.65;8.65;;;;;;;22.33;66.12;101167.34;5032173;28;20037;-58
2021/06/29 01:13:49;;;;;;;9.38;8.32;;;;;;;22.33;65.94;101164.69;5033841;28;20033;-60
2021/06/29 01:16:15;;;;;;;10.35;9.18;;;;;;;22.34;65.86;101154.94;5033151;28;20047;-58
2021/06/29 01:18:45;;;;;;;9.77;8.77;;;;;;;22.34;65.96;101152.28;5032988;28;20532;-58
2021/06/29 01:21:19;;;;;;;9.40;8.50;;;;;;;22.34;65.92;101150.44;5033008;28;20041;-59
2021/06/29 01:23:50;;;;;;;9.98;8.98;;;;;;;22.33;65.99;101132.00;5033510;28;20037;-57
2021/06/29 01:26:29;;;;;;;10.02;8.73;;;;;;;22.33;65.89;101132.84;5033068;28;20030;-58
2021/06/29 01:29:05;;;;;;;9.50;8.50;;;;;;;22.31;65.74;101118.88;5033256;28;20042;-58
2021/06/29 01:31:49;;;;;;;9.60;8.35;;;;;;;22.32;65.98;101120.56;5032633;28;20060;-57
2021/06/29 01:34:17;;;;;;;9.25;8.10;;;;;;;22.32;65.86;101128.53;5032943;28;20033;-59
2021/06/29 01:36:43;;;;;;;10.20;8.75;;;;;;;22.28;66.14;101124.44;5033171;28;20048;-59
2021/06/29 01:39:31;;;;;;;9.97;8.97;;;;;;;22.32;66.01;101131.19;5032091;28;20420;-58
2021/06/29 01:41:59;;;;;;;9.20;8.30;;;;;;;22.32;65.78;101130.31;5027984;28;20318;-57
2021/06/29 01:44:35;;;;;;;10.43;9.15;;;;;;;22.29;65.97;101128.78;5033175;28;20104;-59
2021/06/29 01:47:04;;;;;;;9.45;8.45;;;;;;;22.31;66.02;101118.88;5032754;28;20030;-58
2021/06/29 01:49:32;;;;;;;9.45;8.45;;;;;;;22.31;65.94;101113.56;5032976;28;20029;-58
2021/06/29 01:51:57;;;;;;;9.32;8.43;;;;;;;22.31;66.02;101118.06;5032360;28;20064;-58
2021/06/29 01:54:23;;;;;;;9.65;8.43;;;;;;;22.30;65.76;101113.72;5032773;28;20077;-58
2021/06/29 01:56:50;;;;;;;9.63;8.63;;;;;;;22.31;65.73;101115.38;5032613;28;20382;-58
2021/06/29 01:59:17;;;;;;;9.70;8.57;;;;;;;22.29;65.88;101115.50;5031492;28;20465;-58
2021/06/29 02:01:44;;;;;;;10.43;9.32;;;;;;;22.29;65.89;101112.84;5032646;28;20029;-59
2021/06/29 02:04:10;;;;;;;9.55;8.55;;;;;;;22.28;65.84;101105.84;5032158;28;20099;-59
2021/06/29 02:06:36;;;;;;;9.93;8.93;;;;;;;22.28;65.84;101098.72;5031868;28;20037;-58
2021/06/29 02:09:08;;;;;;;11.05;9.10;;;;;;;22.28;65.78;101097.88;5032218;28;20040;-57
2021/06/29 02:11:36;;;;;;;9.80;8.75;;;;;;;22.28;65.65;101098.72;5032556;28;20065;-58
2021/06/29 02:14:01;;;;;;;10.05;8.65;;;;;;;22.28;65.92;101106.69;5031580;28;20029;-58
2021/06/29 02:16:26;;;;;;;9.40;8.43;;;;;;;22.28;65.85;101095.25;5032175;28;20033;-58
2021/06/29 02:18:51;;;;;;;9.70;8.70;;;;;;;22.28;65.82;101088.09;5032321;28;20119;-58
2021/06/29 02:21:17;;;;;;;9.83;8.83;;;;;;;22.27;65.80;101094.41;5031316;28;20286;-57
2021/06/29 02:23:42;;;;;;;9.82;8.82;;;;;;;22.27;65.82;101094.41;5032261;28;20277;-58
2021/06/29 02:26:07;;;;;;;9.27;8.33;;;;;;;22.28;65.90;101090.75;5031821;28;20036;-58
2021/06/29 02:28:33;;;;;;;10.37;8.40;;;;;;;22.27;65.89;101086.44;5031060;28;20370;-59
2021/06/29 02:30:58;;;;;;;9.10;8.20;;;;;;;22.28;65.84;101076.66;5031532;28;20709;-58
2021/06/29 02:33:23;;;;;;;9.97;8.97;;;;;;;22.27;65.98;101080.28;5031606;28;20537;-59
2021/06/29 02:35:48;;;;;;;9.03;8.13;;;;;;;22.27;65.77;101080.28;5031469;28;20278;-59
2021/06/29 02:38:14;;;;;;;9.75;8.75;;;;;;;22.26;65.87;101086.59;5031522;28;20301;-59
2021/06/29 02:40:39;;;;;;;9.68;8.68;;;;;;;22.26;65.73;101086.59;5031803;28;20028;-58
2021/06/29 02:43:04;;;;;;;10.00;9.00;;;;;;;22.27;65.71;101090.91;5030873;28;20105;-58
2021/06/29 02:45:32;;;;;;;9.73;8.73;;;;;;;22.26;65.60;101097.22;5031822;28;20120;-58
2021/06/29 02:47:58;;;;;;;9.43;8.43;;;;;;;22.27;65.91;101105.03;5031796;28;20465;-58
2021/06/29 02:50:24;;;;;;;9.70;8.70;;;;;;;22.26;65.67;101111.31;5030961;28;20040;-58
2021/06/29 02:52:50;;;;;;;9.70;8.70;;;;;;;22.26;65.87;101111.31;5031780;28;20435;-58
2021/06/29 02:55:15;;;;;;;10.65;8.65;;;;;;;22.24;65.76;101101.84;5030904;28;20104;-59
2021/06/29 02:57:43;;;;;;;9.77;8.77;;;;;;;22.25;65.75;101108.81;5031885;28;20128;-59
2021/06/29 03:00:15;;;;;;;9.82;8.82;;;;;;;22.26;65.88;101113.13;5031329;28;20125;-58
2021/06/29 03:02:44;;;;;;;9.57;8.57;;;;;;;22.26;65.90;101107.81;5030901;28;20465;-58
2021/06/29 03:05:10;;;;;;;9.60;8.40;;;;;;;22.26;65.70;101108.66;5031630;28;20159;-58
2021/06/29 03:07:35;;;;;;;9.82;8.82;;;;;;;22.25;65.88;101100.84;5031868;28;20108;-60
2021/06/29 03:10:01;;;;;;;10.38;9.27;;;;;;;22.24;65.77;101102.66;5030983;28;20026;-59
2021/06/29 03:12:29;;;;;;;9.80;8.80;;;;;;;22.24;65.55;101092.03;5031693;28;20040;-60
2021/06/29 03:14:57;;;;;;;10.48;9.38;;;;;;;22.24;65.59;101093.88;5031580;28;20068;-59
2021/06/29 03:17:25;;;;;;;10.10;8.82;;;;;;;22.22;65.60;101090.50;5030794;28;20025;-58
2021/06/29 03:19:51;;;;;;;11.02;9.02;;;;;;;22.24;65.52;101093.88;5030275;28;20100;-58
2021/06/29 03:22:16;;;;;;;10.63;9.52;;;;;;;22.24;65.54;101094.69;5031380;28;20045;-57
2021/06/29 03:24:42;;;;;;;10.15;9.10;;;;;;;22.23;65.83;101090.38;5030740;28;20037;-59
2021/06/29 03:27:08;;;;;;;9.23;8.23;;;;;;;22.23;65.79;101093.00;5031174;28;20116;-60
2021/06/29 03:29:34;;;;;;;10.50;9.40;;;;;;;22.24;65.73;101099.19;5031262;28;20042;-59
2021/06/29 03:31:59;;;;;;;9.88;8.60;;;;;;;22.23;65.52;101094.84;5030833;28;20052;-58
2021/06/29 03:34:24;;;;;;;9.87;8.80;;;;;;;22.23;65.54;101095.69;5031267;28;20477;-58
2021/06/29 03:36:50;;;;;;;10.13;8.85;;;;;;;22.23;65.73;101095.69;5031416;28;20275;-58
2021/06/29 03:39:18;;;;;;;10.60;9.50;;;;;;;22.22;65.70;101090.50;5030437;28;20091;-58
2021/06/29 03:41:43;;;;;;;10.57;9.48;;;;;;;22.19;65.63;101089.00;5031410;28;20080;-58
2021/06/29 03:44:08;;;;;;;10.23;9.13;;;;;;;22.23;65.58;101100.16;5031204;28;20026;-58
2021/06/29 03:46:33;;;;;;;11.47;9.43;;;;;;;22.22;65.79;101101.13;5030633;28;20267;-58
2021/06/29 03:48:59;;;;;;;10.52;8.43;;;;;;;22.21;65.34;101102.94;5031483;28;20754;-59
2021/06/29 03:51:24;;;;;;;9.98;8.98;;;;;;;22.21;65.40;101100.31;5033964;28;20469;-59
2021/06/29 03:53:50;;;;;;;9.60;8.57;;;;;;;22.22;65.50;101095.81;5034256;28;20088;-59
2021/06/29 03:56:27;;;;;;;9.63;8.63;;;;;;;22.21;65.53;101096.81;5034668;28;20017;-58
2021/06/29 03:59:08;;;;;;;10.48;9.10;;;;;;;22.23;65.66;101105.47;5034224;28;20279;-59
2021/06/29 04:01:34;;;;;;;10.10;8.80;;;;;;;22.22;65.57;101101.97;5035111;28;20437;-58
2021/06/29 04:03:59;;;;;;;10.07;9.02;;;;;;;22.21;65.46;101099.47;5034914;28;20068;-59
2021/06/29 04:06:27;;;;;;;10.50;9.40;;;;;;;22.22;65.64;101103.78;5033756;28;20025;-59
2021/06/29 04:08:54;;;;;;;9.00;8.10;;;;;;;22.21;65.57;101102.13;5034609;28;20622;-59
2021/06/29 04:11:20;;;;;;;9.32;8.38;;;;;;;22.19;65.52;101093.44;5034087;28;20030;-58
2021/06/29 04:13:46;;;;;;;9.02;8.13;;;;;;;22.21;65.62;101110.09;5034141;28;20022;-58
2021/06/29 04:16:11;;;;;;;10.40;9.02;;;;;;;22.21;65.39;101105.59;5034647;28;20018;-58
2021/06/29 04:18:37;;;;;;;9.30;8.27;;;;;;;22.21;65.61;101102.13;5034553;28;20017;-58
2021/06/29 04:21:03;;;;;;;11.20;9.13;;;;;;;22.21;65.37;101099.47;5033287;28;20104;-59
2021/06/29 04:23:29;;;;;;;9.95;8.95;;;;;;;22.21;65.56;101104.78;5034494;28;20100;-58
2021/06/29 04:25:54;;;;;;;9.48;8.40;;;;;;;22.20;65.29;101100.44;5034469;28;20033;-58
2021/06/29 04:28:19;;;;;;;9.65;8.52;;;;;;;22.21;65.47;101108.25;5033276;28;20120;-59
2021/06/29 04:30:45;;;;;;;9.93;8.93;;;;;;;22.19;65.52;101109.38;5034083;28;20040;-58
2021/06/29 04:33:10;;;;;;;9.52;8.55;;;;;;;22.21;65.53;101102.13;5033798;28;20025;-58
2021/06/29 04:35:35;;;;;;;9.80;8.80;;;;;;;22.20;65.67;101103.94;5033451;28;20022;-59
2021/06/29 04:38:01;;;;;;;9.40;8.40;;;;;;;22.20;65.57;101106.56;5033981;28;20437;-58
2021/06/29 04:40:26;;;;;;;9.88;8.85;;;;;;;22.19;65.39;101106.72;5033690;28;20029;-59
2021/06/29 04:42:51;;;;;;;9.57;8.68;;;;;;;22.19;65.37;101099.63;5033427;28;20022;-58
2021/06/29 04:45:17;;;;;;;9.35;8.45;;;;;;;22.18;65.42;101095.28;5033773;28;20022;-59
2021/06/29 04:47:48;;;;;;;9.45;8.55;;;;;;;22.20;65.39;101095.13;5034027;28;20045;-58
2021/06/29 04:50:17;;;;;;;10.75;9.65;;;;;;;22.18;65.30;101086.50;5033619;28;20030;-59
2021/06/29 04:52:42;;;;;;;10.02;9.02;;;;;;;22.19;65.49;101089.00;5033708;28;20063;-57
2021/06/29 04:55:08;;;;;;;9.25;8.35;;;;;;;22.18;65.49;101082.00;5033047;28;20336;-58
2021/06/29 04:57:34;;;;;;;10.40;9.30;;;;;;;22.18;65.59;101084.66;5033906;28;20025;-59
2021/06/29 05:00:06;;;;;;;10.02;8.93;;;;;;;22.20;65.46;101092.47;5033669;28;20025;-59
2021/06/29 05:02:32;;;;;;;9.77;8.77;;;;;;;22.17;65.44;101088.28;5032481;28;20025;-58
2021/06/29 05:04:57;;;;;;;10.23;9.07;;;;;;;22.19;65.38;101085.50;5033541;28;20412;-59
2021/06/29 05:07:22;;;;;;;10.50;9.07;;;;;;;22.18;65.54;101091.81;5033158;28;20045;-59
2021/06/29 05:09:48;;;;;;;10.30;9.30;;;;;;;22.18;65.29;101084.66;5032847;28;20362;-58
2021/06/29 05:12:13;;;;;;;9.93;8.93;;;;;;;22.18;65.30;101092.63;5033371;28;20408;-59
2021/06/29 05:14:38;;;;;;;10.40;9.30;;;;;;;22.16;65.54;101083.97;5033226;28;20021;-58
2021/06/29 05:17:04;;;;;;;10.47;9.37;;;;;;;22.18;65.38;101095.28;5032432;28;20026;-58
2021/06/29 05:19:29;;;;;;;10.82;9.73;;;;;;;22.18;65.56;101089.97;5033340;28;20267;-58
2021/06/29 05:21:57;;;;;;;10.23;9.23;;;;;;;22.17;65.30;101096.25;5033042;28;20029;-59
2021/06/29 05:24:23;;;;;;;10.82;9.73;;;;;;;22.18;65.44;101105.06;5032211;28;20018;-58
2021/06/29 05:26:49;;;;;;;9.90;8.80;;;;;;;22.18;65.49;101110.38;5033233;28;20036;-59
2021/06/29 05:29:14;;;;;;;10.00;8.75;;;;;;;22.18;65.39;101121.00;5032466;28;20056;-58
2021/06/29 05:31:39;;;;;;;9.63;8.73;;;;;;;22.18;65.26;101124.47;5032255;28;20029;-59
2021/06/29 05:34:04;;;;;;;10.10;8.50;;;;;;;22.19;65.42;101125.31;5032728;28;20267;-58
2021/06/29 05:36:30;;;;;;;9.90;8.90;;;;;;;22.17;65.57;101117.47;5032854;28;20039;-58
2021/06/29 05:38:55;;;;;;;9.43;8.52;;;;;;;22.16;65.46;101123.78;5032296;28;20733;-58
2021/06/29 05:41:20;;;;;;;10.07;9.02;;;;;;;22.18;65.32;101123.66;5032593;28;20359;-58
2021/06/29 05:43:46;;;;;;;9.93;8.40;;;;;;;22.17;65.29;101128.09;5032589;28;20033;-58
2021/06/29 05:46:13;;;;;;;10.25;8.60;;;;;;;22.18;65.46;101129.78;5031714;28;20025;-59
2021/06/29 05:48:38;;;;;;;9.63;8.63;;;;;;;22.18;65.42;101118.34;5032501;28;20113;-59
2021/06/29 05:51:04;;;;;;;9.80;8.80;;;;;;;22.18;65.47;101128.97;5031913;28;20029;-58
2021/06/29 05:53:32;;;;;;;10.60;9.50;;;;;;;22.16;65.36;101121.13;5032299;28;20018;-59
2021/06/29 05:55:59;;;;;;;10.02;9.02;;;;;;;22.18;65.32;101128.97;5032605;28;20045;-59
2021/06/29 05:58:25;;;;;;;10.70;9.60;;;;;;;22.19;65.44;101135.91;5031426;28;20115;-59
2021/06/29 06:00:51;;;;;;;12.07;10.77;;;;;;;22.17;65.34;101132.59;5032455;28;20049;-59
2021/06/29 06:03:16;;;;;;;11.13;9.60;;;;;;;22.17;65.36;101127.28;5031942;28;20481;-59
2021/06/29 06:05:42;;;;;;;11.45;10.25;;;;;;;22.16;65.42;101122.94;5031714;28;20021;-59
2021/06/29 06:08:08;;;;;;;12.10;10.70;;;;;;;22.16;65.47;101130.91;5032365;28;20048;-59
2021/06/29 06:10:33;;;;;;;11.15;10.05;;;;;;;22.15;65.61;101130.06;5032880;28;20033;-59
2021/06/29 06:12:59;;;;;;;12.35;11.05;;;;;;;22.16;65.46;101139.72;5033266;28;20366;-57
2021/06/29 06:15:24;;;;;;;12.02;10.57;;;;;;;22.18;65.84;101128.97;5032355;28;20057;-58
2021/06/29 06:17:49;;;;;;;13.20;11.60;;;;;;;22.18;65.98;101139.56;5032342;28;20021;-57
2021/06/29 06:20:15;;;;;;;12.73;11.43;;;;;;;22.17;65.82;101136.06;5032882;28;20022;-60
2021/06/29 06:22:40;;;;;;;11.60;10.40;;;;;;;22.19;65.65;101134.13;5032652;28;20290;-57
2021/06/29 06:25:07;;;;;;;11.85;10.63;;;;;;;22.20;65.55;101130.47;5032332;28;20041;-59
2021/06/29 06:27:32;;;;;;;11.63;10.43;;;;;;;22.18;65.78;101124.47;5032412;28;20030;-57
2021/06/29 06:29:57;;;;;;;13.73;11.82;;;;;;;22.21;65.94;101118.06;5033131;28;20507;-58
2021/06/29 06:32:23;;;;;;;12.50;11.20;;;;;;;22.21;65.84;101118.88;5032729;28;20125;-58
2021/06/29 06:34:48;;;;;;;12.60;10.90;;;;;;;22.22;65.75;101115.25;5032349;28;20279;-57
2021/06/29 06:37:13;;;;;;;12.70;11.35;;;;;;;22.23;65.89;101113.44;5034137;28;20017;-58
2021/06/29 06:39:39;;;;;;;13.43;11.87;;;;;;;22.25;65.75;101116.75;5033883;28;20033;-58
2021/06/29 06:42:04;;;;;;;15.27;12.50;;;;;;;22.24;65.77;101115.94;5031847;28;20270;-58
2021/06/29 06:44:30;;;;;;;14.27;12.52;;;;;;;22.26;65.77;101113.13;5032478;28;20048;-57
2021/06/29 06:46:58;;;;;;;13.10;11.70;;;;;;;22.28;66.02;101119.13;5032617;28;20109;-57
2021/06/29 06:49:26;;;;;;;13.77;12.38;;;;;;;22.27;65.72;101107.69;5031362;28;20024;-58
2021/06/29 06:51:51;;;;;;;14.57;12.82;;;;;;;22.29;65.91;101110.19;5033426;28;20029;-58
2021/06/29 06:54:16;;;;;;;15.20;13.30;;;;;;;22.29;65.81;101107.53;5032160;28;20080;-58
2021/06/29 06:56:42;;;;;;;16.10;13.20;;;;;;;22.28;65.77;101111.16;5031897;28;20025;-58
2021/06/29 06:59:07;;;;;;;18.87;14.63;;;;;;;22.29;66.01;101110.19;5032173;28;20267;-58
2021/06/29 07:01:33;;;;;;;17.08;14.25;;;;;;;22.28;65.96;101109.34;5032010;28;20266;-57
2021/06/29 07:03:58;;;;;;;19.55;15.45;;;;;;;22.30;65.91;101116.38;5032938;28;20026;-58
2021/06/29 07:06:24;;;;;;;16.50;14.27;;;;;;;22.31;66.19;101118.88;5032214;28;20029;-57
2021/06/29 07:08:52;;;;;;;20.48;16.17;;;;;;;22.31;66.14;101126.84;5032474;28;20025;-59
2021/06/29 07:11:17;;;;;;;20.05;15.18;;;;;;;22.31;66.30;101124.19;5031602;28;20492;-58
2021/06/29 07:13:48;;;;;;;20.05;15.18;;;;;;;22.32;66.30;101122.34;5031974;28;20034;-59
2021/06/29 07:16:14;;;;;;;20.40;15.18;;;;;;;22.34;66.07;101123.91;5030869;28;20037;-58
2021/06/29 07:18:39;;;;;;;19.13;15.35;;;;;;;22.34;66.24;101123.06;5031676;28;20021;-58
2021/06/29 07:21:04;;;;;;;18.23;13.70;;;;;;;22.31;66.17;101120.69;5031639;28;20030;-57
2021/06/29 07:23:30;;;;;;;17.77;14.48;;;;;;;22.35;66.18;101122.06;5030969;28;20147;-59
2021/06/29 07:25:55;;;;;;;19.75;15.55;;;;;;;22.34;65.90;101113.28;5033980;28;20144;-58
2021/06/29 07:28:20;;;;;;;17.67;14.70;;;;;;;22.28;65.82;101100.53;5035152;28;20115;-59
2021/06/29 07:30:46;;;;;;;19.98;15.15;;;;;;;22.36;66.20;101113.13;5035547;28;20064;-60
2021/06/29 07:33:11;;;;;;;18.08;13.88;;;;;;;22.36;66.02;101103.34;5035273;28;20021;-59
2021/06/29 07:35:37;;;;;;;18.73;14.48;;;;;;;22.35;66.04;101114.97;5034334;28;20434;-59
2021/06/29 07:38:03;;;;;;;20.67;15.57;;;;;;;22.36;66.08;101108.66;5034781;28;20028;-60
2021/06/29 07:40:38;;;;;;;21.17;15.65;;;;;;;22.37;66.09;101105.03;5035560;28;20092;-60
2021/06/29 07:43:03;;;;;;;19.45;15.15;;;;;;;22.36;65.97;101100.69;5035359;28;20047;-60
2021/06/29 07:45:29;;;;;;;21.02;15.63;;;;;;;22.36;65.95;101108.66;5034735;28;20520;-59
2021/06/29 07:48:01;;;;;;;17.08;14.52;;;;;;;22.37;66.03;101106.84;5035887;28;20026;-59
2021/06/29 07:50:42;;;;;;;18.70;13.48;;;;;;;22.35;65.94;101108.78;5036384;28;20331;-61
2021/06/29 07:53:14;;;;;;;19.98;14.57;;;;;;;22.36;65.79;101115.78;5035649;28;20031;-59
2021/06/29 07:55:39;;;;;;;18.63;14.60;;;;;;;22.34;65.79;101121.25;5035661;28;20045;-57
2021/06/29 07:58:04;;;;;;;18.73;14.25;;;;;;;22.33;65.75;101118.72;5033859;28;20503;-58
2021/06/29 08:00:30;;;;;;;19.48;14.95;;;;;;;22.31;65.73;101121.53;5035366;28;20026;-60
2021/06/29 08:02:56;;;;;;;19.52;14.68;;;;;;;22.31;65.88;101116.22;5035034;28;20109;-59
2021/06/29 08:05:24;;;;;;;18.52;14.70;;;;;;;22.30;65.70;101114.53;5033862;28;20064;-58
2021/06/29 08:07:50;;;;;;;18.80;14.43;;;;;;;22.30;65.74;101121.66;5035076;28;20083;-59
2021/06/29 08:10:21;;;;;;;17.13;14.23;;;;;;;22.29;65.90;101128.78;5034674;28;20029;-59
2021/06/29 08:12:47;;;;;;;20.30;14.35;;;;;;;22.28;65.71;101119.97;5034522;28;20270;-59
2021/06/29 08:15:14;;;;;;;16.98;13.40;;;;;;;22.27;65.90;101128.06;5034786;28;20044;-58
2021/06/29 08:17:40;;;;;;;19.17;14.52;;;;;;;22.27;65.72;101125.41;5034735;28;20043;-62
2021/06/29 08:20:06;;;;;;;17.00;13.85;;;;;;;22.27;65.70;101125.41;5036412;28;20481;-59
2021/06/29 08:22:46;;;;;;;19.33;13.52;;;;;;;22.09;65.87;101096.16;5035239;28;20067;-59
2021/06/29 08:25:12;;;;;;;15.57;12.43;;;;;;;22.17;65.61;101109.53;5034349;28;20081;-59
2021/06/29 08:27:38;;;;;;;17.02;13.43;;;;;;;22.28;65.55;101124.44;5033719;28;20017;-59
2021/06/29 08:30:06;;;;;;;16.38;13.60;;;;;;;22.28;65.70;101127.09;5033888;28;20541;-59
2021/06/29 08:32:32;;;;;;;16.83;13.60;;;;;;;22.29;65.50;101126.13;5034459;28;20022;-59
2021/06/29 08:34:57;;;;;;;18.35;12.98;;;;;;;22.31;65.76;101128.66;5033661;28;20025;-58
2021/06/29 08:37:23;;;;;;;17.85;14.65;;;;;;;22.30;65.49;101127.81;5033683;28;20025;-61
2021/06/29 08:39:49;;;;;;;16.10;12.85;;;;;;;22.31;65.62;101131.31;5034073;28;20124;-60
2021/06/29 08:42:21;;;;;;;18.55;14.07;;;;;;;22.32;65.33;101132.97;5033170;28;20369;-59
2021/06/29 08:44:46;;;;;;;16.50;13.65;;;;;;;22.33;65.51;101129.34;5034226;28;20101;-60
2021/06/29 08:47:11;;;;;;;17.58;14.00;;;;;;;22.35;65.19;101132.69;5033189;28;20056;-59
2021/06/29 08:49:37;;;;;;;17.85;13.20;;;;;;;22.36;65.22;101121.09;5035290;28;20041;-63
2021/06/29 08:52:05;;;;;;;19.20;13.50;;;;;;;22.40;65.51;101125.16;5034792;28;20097;-62
2021/06/29 08:54:30;;;;;;;18.77;13.65;;;;;;;22.42;65.42;101121.34;5033171;28;20025;-60
2021/06/29 08:56:56;;;;;;;18.33;13.15;;;;;;;22.45;65.32;101122.88;5035125;28;20402;-60
2021/06/29 08:59:21;;;;;;;16.98;13.45;;;;;;;22.48;65.16;101122.59;5034460;28;20389;-59
2021/06/29 09:01:46;;;;;;;17.60;13.85;;;;;;;22.51;65.18;101126.75;5033606;28;20091;-59
2021/06/29 09:04:11;;;;;;;16.03;13.47;;;;;;;22.52;65.15;101126.59;5033381;28;20029;-58
2021/06/29 09:06:40;;;;;;;17.52;12.85;;;;;;;22.54;65.28;101134.44;5033941;28;20267;-63
2021/06/29 09:09:28;;;;;;;15.70;12.85;;;;;;;22.55;65.00;101134.28;5032877;28;20055;-62
2021/06/29 09:11:55;;;;;;;16.98;13.10;;;;;;;22.56;64.95;101130.66;5034225;28;20132;-62
2021/06/29 09:14:27;;;;;;;17.98;13.30;;;;;;;22.57;64.92;101127.03;5033359;28;20101;-62
2021/06/29 09:16:52;;;;;;;16.23;12.70;;;;;;;22.58;64.77;101123.38;5032653;28;20021;-62
2021/06/29 09:19:34;;;;;;;17.08;13.23;;;;;;;22.60;64.97;101123.22;5033185;28;20028;-61
2021/06/29 09:22:30;;;;;;;15.80;13.13;;;;;;;22.60;65.02;101123.22;5033601;28;20021;-61
2021/06/29 09:24:57;;;;;;;16.38;13.13;;;;;;;22.60;64.89;101128.53;5033374;28;20030;-62
2021/06/29 09:27:46;;;;;;;17.63;13.73;;;;;;;22.63;64.97;101117.63;5032980;28;20150;-63
2021/06/29 09:30:26;;;;;;;16.45;13.63;;;;;;;22.62;64.91;101123.91;5031826;28;20390;-61
2021/06/29 09:32:52;;;;;;;18.27;14.00;;;;;;;22.62;64.92;101124.75;5034148;28;20017;-62
2021/06/29 09:35:17;;;;;;;17.67;13.98;;;;;;;22.62;64.64;101126.56;5035187;28;20032;-60
2021/06/29 09:37:46;;;;;;;15.32;13.10;;;;;;;22.64;64.73;101119.28;5032339;28;20108;-60
2021/06/29 09:40:13;;;;;;;17.95;14.07;;;;;;;22.66;64.85;101129.78;5032664;28;20091;-60
2021/06/29 09:42:41;;;;;;;18.08;13.23;;;;;;;22.66;64.78;101129.78;5033088;28;20075;-59
2021/06/29 09:45:30;;;;;;;16.35;13.30;;;;;;;22.69;64.79;101126.81;5031670;28;20519;-59
2021/06/29 09:47:56;;;;;;;18.83;14.48;;;;;;;22.73;64.51;101129.03;5032402;28;20032;-59
2021/06/29 09:50:46;;;;;;;17.67;13.82;;;;;;;22.73;64.41;101130.84;5031357;28;20124;-60
2021/06/29 09:53:16;;;;;;;17.13;13.90;;;;;;;22.74;64.59;101129.88;5032323;28;20022;-59
2021/06/29 09:55:44;;;;;;;19.70;14.43;;;;;;;22.75;64.47;101132.38;5032910;28;20366;-59
2021/06/29 09:58:11;;;;;;;16.08;14.07;;;;;;;22.79;64.53;101133.72;5031599;28;20033;-59
2021/06/29 10:00:43;;;;;;;17.92;14.48;;;;;;;22.81;64.49;101134.44;5032638;28;20029;-60
2021/06/29 10:03:24;;;;;;;17.50;14.20;;;;;;;22.83;64.31;101128.97;5032144;28;20018;-60
2021/06/29 10:05:52;;;;;;;17.60;13.80;;;;;;;22.88;64.23;101142.66;5032032;28;20105;-60
2021/06/29 10:08:29;;;;;;;16.75;14.20;;;;;;;22.89;64.65;101144.34;5032234;28;20432;-58
2021/06/29 10:11:15;;;;;;;17.40;13.48;;;;;;;22.88;64.26;101141.81;5032495;28;20381;-60
2021/06/29 10:13:51;;;;;;;16.85;14.02;;;;;;;22.88;64.22;101150.63;5031618;28;20057;-60
2021/06/29 10:16:21;;;;;;;17.13;14.25;;;;;;;22.88;64.35;101142.66;5032293;28;20068;-59
2021/06/29 10:18:54;;;;;;;18.92;15.20;;;;;;;22.91;64.29;101136.22;5031726;28;20098;-59
2021/06/29 10:21:22;;;;;;;16.77;13.73;;;;;;;22.93;64.40;101139.53;5032174;28;20037;-60
2021/06/29 10:23:49;;;;;;;17.58;14.32;;;;;;;22.90;64.55;101134.53;5032179;28;20473;-59
2021/06/29 10:26:15;;;;;;;17.48;14.43;;;;;;;22.92;64.44;101140.53;5031131;28;20381;-59
2021/06/29 10:28:41;;;;;;;18.85;14.55;;;;;;;22.94;64.09;101135.88;5031915;28;20048;-59
2021/06/29 10:31:07;;;;;;;18.02;14.38;;;;;;;22.97;64.03;101139.09;5031723;28;20489;-59
2021/06/29 10:33:54;;;;;;;18.00;15.00;;;;;;;22.97;64.15;101132.94;5031507;28;20043;-59
2021/06/29 10:36:22;;;;;;;16.77;14.02;;;;;;;22.97;64.11;101132.94;5031426;28;20130;-59
2021/06/29 10:38:49;;;;;;;16.10;14.40;;;;;;;22.98;64.11;101126.63;5031999;28;20029;-61
2021/06/29 10:41:15;;;;;;;16.23;14.25;;;;;;;22.97;64.03;101127.63;5031163;28;20140;-59
2021/06/29 10:43:42;;;;;;;18.27;14.98;;;;;;;22.99;64.48;101123.00;5032286;28;20126;-59
2021/06/29 10:46:15;;;;;;;18.15;14.02;;;;;;;22.99;64.55;101123.84;5031842;28;20033;-59
2021/06/29 10:48:43;;;;;;;21.15;15.52;;;;;;;22.98;64.52;101122.16;5031168;28;20377;-60
2021/06/29 10:51:12;;;;;;;17.38;15.13;;;;;;;23.02;64.53;101122.72;5031688;28;20147;-58
2021/06/29 10:53:45;;;;;;;19.52;15.30;;;;;;;23.05;64.48;101119.75;5031411;28;20022;-59
2021/06/29 10:56:16;;;;;;;18.10;14.93;;;;;;;23.06;64.29;101108.09;5031755;28;20474;-59
2021/06/29 10:58:50;;;;;;;19.42;14.93;;;;;;;23.07;64.29;101117.75;5032116;28;20034;-60
2021/06/29 11:01:29;;;;;;;18.73;15.38;;;;;;;23.10;64.31;101111.34;5033770;28;20072;-58
2021/06/29 11:03:59;;;;;;;16.42;14.23;;;;;;;23.11;64.21;101107.69;5036387;28;20033;-60
2021/06/29 11:06:34;;;;;;;19.42;15.48;;;;;;;23.12;64.01;101101.41;5035851;28;20018;-61
2021/06/29 11:09:00;;;;;;;18.90;15.48;;;;;;;23.09;64.42;101094.56;5035635;28;20369;-60
2021/06/29 11:11:28;;;;;;;19.02;15.27;;;;;;;23.11;64.21;101097.06;5035604;28;20044;-61
2021/06/29 11:13:54;;;;;;;20.17;15.75;;;;;;;23.11;64.25;101086.44;5035767;28;20028;-59
2021/06/29 11:16:58;;;;;;;17.70;15.00;;;;;;;23.10;63.95;101072.31;5035148;28;20087;-60
2021/06/29 11:20:07;;;;;;;18.00;15.52;;;;;;;23.12;64.06;101074.81;5035718;28;20086;-61